sensor_id;sensor_type;location;lat;lon;timestamp;P1;durP1;ratioP1;P2;durP2;ratioP2
45326;SDS011;31062;49.678;24.560;2024-03-02T00:01:41;17.30;;;10.57;;
45326;SDS011;31062;49.678;24.560;2024-03-02T00:04:27;23.38;;;11.65;;
45326;SDS011;31062;49.678;24.560;2024-03-02T00:07:13;20.48;;;12.32;;
45326;SDS011;31062;49.678;24.560;2024-03-02T00:10:00;20.48;;;11.85;;
45326;SDS011;31062;49.678;24.560;2024-03-02T00:12:47;32.88;;;16.45;;
45326;SDS011;31062;49.678;24.560;2024-03-02T00:15:47;21.75;;;10.82;;
45326;SDS011;31062;49.678;24.560;2024-03-02T00:18:36;19.52;;;12.15;;
45326;SDS011;31062;49.678;24.560;2024-03-02T00:21:24;22.30;;;12.48;;
45326;SDS011;31062;49.678;24.560;2024-03-02T00:24:26;22.90;;;12.85;;
45326;SDS011;31062;49.678;24.560;2024-03-02T00:27:23;20.10;;;11.98;;
45326;SDS011;31062;49.678;24.560;2024-03-02T00:30:38;24.38;;;12.55;;
45326;SDS011;31062;49.678;24.560;2024-03-02T00:33:42;27.05;;;13.13;;
45326;SDS011;31062;49.678;24.560;2024-03-02T00:36:29;21.80;;;13.15;;
45326;SDS011;31062;49.678;24.560;2024-03-02T00:39:16;24.35;;;12.25;;
45326;SDS011;31062;49.678;24.560;2024-03-02T00:42:03;26.88;;;13.63;;
45326;SDS011;31062;49.678;24.560;2024-03-02T00:44:49;19.73;;;12.70;;
45326;SDS011;31062;49.678;24.560;2024-03-02T00:47:38;22.83;;;12.93;;
45326;SDS011;31062;49.678;24.560;2024-03-02T00:50:24;24.00;;;12.02;;
45326;SDS011;31062;49.678;24.560;2024-03-02T00:53:15;20.73;;;11.68;;
45326;SDS011;31062;49.678;24.560;2024-03-02T00:56:05;18.85;;;12.02;;
45326;SDS011;31062;49.678;24.560;2024-03-02T00:58:56;26.05;;;13.45;;
45326;SDS011;31062;49.678;24.560;2024-03-02T01:01:41;23.35;;;12.77;;
45326;SDS011;31062;49.678;24.560;2024-03-02T01:04:28;19.98;;;12.63;;
45326;SDS011;31062;49.678;24.560;2024-03-02T01:07:15;20.70;;;11.63;;
45326;SDS011;31062;49.678;24.560;2024-03-02T01:10:00;21.90;;;12.48;;
45326;SDS011;31062;49.678;24.560;2024-03-02T01:12:46;26.90;;;13.43;;
45326;SDS011;31062;49.678;24.560;2024-03-02T01:15:32;24.55;;;12.30;;
45326;SDS011;31062;49.678;24.560;2024-03-02T01:18:19;22.77;;;12.77;;
45326;SDS011;31062;49.678;24.560;2024-03-02T01:21:05;20.00;;;13.38;;
45326;SDS011;31062;49.678;24.560;2024-03-02T01:23:51;18.92;;;12.02;;
45326;SDS011;31062;49.678;24.560;2024-03-02T01:26:36;24.58;;;12.93;;
45326;SDS011;31062;49.678;24.560;2024-03-02T01:29:22;21.58;;;12.93;;
45326;SDS011;31062;49.678;24.560;2024-03-02T01:32:08;20.60;;;12.35;;
45326;SDS011;31062;49.678;24.560;2024-03-02T01:34:54;26.58;;;13.70;;
45326;SDS011;31062;49.678;24.560;2024-03-02T01:37:41;20.08;;;11.68;;
45326;SDS011;31062;49.678;24.560;2024-03-02T01:40:27;22.02;;;13.20;;
45326;SDS011;31062;49.678;24.560;2024-03-02T01:43:13;23.77;;;13.25;;
45326;SDS011;31062;49.678;24.560;2024-03-02T01:46:21;18.75;;;12.23;;
45326;SDS011;31062;49.678;24.560;2024-03-02T01:49:26;23.48;;;12.07;;
45326;SDS011;31062;49.678;24.560;2024-03-02T01:52:12;25.48;;;13.40;;
45326;SDS011;31062;49.678;24.560;2024-03-02T01:54:59;20.52;;;11.45;;
45326;SDS011;31062;49.678;24.560;2024-03-02T01:57:45;21.13;;;11.32;;
45326;SDS011;31062;49.678;24.560;2024-03-02T02:00:30;27.92;;;13.25;;
45326;SDS011;31062;49.678;24.560;2024-03-02T02:03:17;21.88;;;11.82;;
45326;SDS011;31062;49.678;24.560;2024-03-02T02:06:03;22.33;;;12.65;;
45326;SDS011;31062;49.678;24.560;2024-03-02T02:08:49;22.10;;;12.10;;
45326;SDS011;31062;49.678;24.560;2024-03-02T02:11:35;22.52;;;11.82;;
45326;SDS011;31062;49.678;24.560;2024-03-02T02:14:22;23.85;;;11.73;;
45326;SDS011;31062;49.678;24.560;2024-03-02T02:17:07;18.05;;;11.48;;
45326;SDS011;31062;49.678;24.560;2024-03-02T02:19:53;23.80;;;12.20;;
45326;SDS011;31062;49.678;24.560;2024-03-02T02:22:39;27.33;;;11.38;;
45326;SDS011;31062;49.678;24.560;2024-03-02T02:25:25;23.33;;;12.10;;
45326;SDS011;31062;49.678;24.560;2024-03-02T02:28:11;18.27;;;11.90;;
45326;SDS011;31062;49.678;24.560;2024-03-02T02:30:57;27.88;;;12.32;;
45326;SDS011;31062;49.678;24.560;2024-03-02T02:33:45;20.17;;;10.30;;
45326;SDS011;31062;49.678;24.560;2024-03-02T02:36:32;18.23;;;11.02;;
45326;SDS011;31062;49.678;24.560;2024-03-02T02:39:19;21.92;;;12.38;;
45326;SDS011;31062;49.678;24.560;2024-03-02T02:42:07;20.95;;;11.93;;
45326;SDS011;31062;49.678;24.560;2024-03-02T02:44:53;22.60;;;11.60;;
45326;SDS011;31062;49.678;24.560;2024-03-02T02:47:39;21.23;;;11.93;;
45326;SDS011;31062;49.678;24.560;2024-03-02T02:50:25;18.42;;;10.68;;
45326;SDS011;31062;49.678;24.560;2024-03-02T02:53:11;19.17;;;11.77;;
45326;SDS011;31062;49.678;24.560;2024-03-02T02:55:57;17.30;;;11.13;;
45326;SDS011;31062;49.678;24.560;2024-03-02T02:58:43;22.33;;;11.77;;
45326;SDS011;31062;49.678;24.560;2024-03-02T03:01:28;18.88;;;12.45;;
45326;SDS011;31062;49.678;24.560;2024-03-02T03:04:15;21.00;;;11.07;;
45326;SDS011;31062;49.678;24.560;2024-03-02T03:07:00;18.70;;;11.38;;
45326;SDS011;31062;49.678;24.560;2024-03-02T03:09:47;18.17;;;10.90;;
45326;SDS011;31062;49.678;24.560;2024-03-02T03:12:32;19.63;;;11.73;;
45326;SDS011;31062;49.678;24.560;2024-03-02T03:15:19;17.90;;;10.80;;
45326;SDS011;31062;49.678;24.560;2024-03-02T03:18:06;19.20;;;10.35;;
45326;SDS011;31062;49.678;24.560;2024-03-02T03:20:53;16.30;;;9.15;;
45326;SDS011;31062;49.678;24.560;2024-03-02T03:23:39;19.75;;;10.90;;
45326;SDS011;31062;49.678;24.560;2024-03-02T03:26:25;20.13;;;10.27;;
45326;SDS011;31062;49.678;24.560;2024-03-02T03:29:10;15.13;;;10.18;;
45326;SDS011;31062;49.678;24.560;2024-03-02T03:31:56;20.13;;;10.52;;
45326;SDS011;31062;49.678;24.560;2024-03-02T03:34:41;15.40;;;10.27;;
45326;SDS011;31062;49.678;24.560;2024-03-02T03:37:27;19.13;;;10.82;;
45326;SDS011;31062;49.678;24.560;2024-03-02T03:40:18;20.73;;;11.10;;
45326;SDS011;31062;49.678;24.560;2024-03-02T03:43:05;20.35;;;11.38;;
45326;SDS011;31062;49.678;24.560;2024-03-02T03:45:50;21.70;;;11.50;;
45326;SDS011;31062;49.678;24.560;2024-03-02T03:48:37;21.27;;;11.05;;
45326;SDS011;31062;49.678;24.560;2024-03-02T03:51:22;16.52;;;10.48;;
45326;SDS011;31062;49.678;24.560;2024-03-02T03:54:08;20.02;;;11.27;;
45326;SDS011;31062;49.678;24.560;2024-03-02T03:56:56;20.70;;;10.02;;
45326;SDS011;31062;49.678;24.560;2024-03-02T03:59:42;20.85;;;9.90;;
45326;SDS011;31062;49.678;24.560;2024-03-02T04:02:28;16.27;;;10.18;;
45326;SDS011;31062;49.678;24.560;2024-03-02T04:05:14;20.63;;;10.52;;
45326;SDS011;31062;49.678;24.560;2024-03-02T04:08:00;23.83;;;11.32;;
45326;SDS011;31062;49.678;24.560;2024-03-02T04:11:06;17.92;;;10.02;;
45326;SDS011;31062;49.678;24.560;2024-03-02T04:13:53;16.23;;;10.50;;
45326;SDS011;31062;49.678;24.560;2024-03-02T04:16:44;19.13;;;9.95;;
45326;SDS011;31062;49.678;24.560;2024-03-02T04:19:30;18.33;;;10.02;;
45326;SDS011;31062;49.678;24.560;2024-03-02T04:22:16;22.23;;;11.75;;
45326;SDS011;31062;49.678;24.560;2024-03-02T04:25:10;20.67;;;10.98;;
45326;SDS011;31062;49.678;24.560;2024-03-02T04:27:58;21.02;;;10.57;;
45326;SDS011;31062;49.678;24.560;2024-03-02T04:30:44;18.60;;;9.88;;
45326;SDS011;31062;49.678;24.560;2024-03-02T04:33:30;21.35;;;9.75;;
45326;SDS011;31062;49.678;24.560;2024-03-02T04:36:16;13.95;;;9.98;;
45326;SDS011;31062;49.678;24.560;2024-03-02T04:39:02;15.60;;;9.05;;
45326;SDS011;31062;49.678;24.560;2024-03-02T04:41:47;18.08;;;10.27;;
45326;SDS011;31062;49.678;24.560;2024-03-02T04:44:33;19.58;;;9.85;;
45326;SDS011;31062;49.678;24.560;2024-03-02T04:47:19;19.25;;;10.32;;
45326;SDS011;31062;49.678;24.560;2024-03-02T04:50:20;12.82;;;8.50;;
45326;SDS011;31062;49.678;24.560;2024-03-02T04:53:07;15.27;;;9.25;;
45326;SDS011;31062;49.678;24.560;2024-03-02T04:55:53;16.48;;;9.65;;
45326;SDS011;31062;49.678;24.560;2024-03-02T04:58:40;14.65;;;9.45;;
45326;SDS011;31062;49.678;24.560;2024-03-02T05:01:27;12.40;;;8.88;;
45326;SDS011;31062;49.678;24.560;2024-03-02T05:04:13;16.83;;;9.25;;
45326;SDS011;31062;49.678;24.560;2024-03-02T05:06:59;16.33;;;9.50;;
45326;SDS011;31062;49.678;24.560;2024-03-02T05:09:44;24.13;;;9.95;;
45326;SDS011;31062;49.678;24.560;2024-03-02T05:12:30;14.45;;;9.48;;
45326;SDS011;31062;49.678;24.560;2024-03-02T05:15:29;16.00;;;9.40;;
45326;SDS011;31062;49.678;24.560;2024-03-02T05:18:15;14.25;;;9.10;;
45326;SDS011;31062;49.678;24.560;2024-03-02T05:21:00;13.77;;;7.50;;
45326;SDS011;31062;49.678;24.560;2024-03-02T05:23:46;16.75;;;9.77;;
45326;SDS011;31062;49.678;24.560;2024-03-02T05:26:53;14.77;;;8.80;;
45326;SDS011;31062;49.678;24.560;2024-03-02T05:29:38;16.15;;;9.43;;
45326;SDS011;31062;49.678;24.560;2024-03-02T05:32:24;16.58;;;9.68;;
45326;SDS011;31062;49.678;24.560;2024-03-02T05:35:09;14.48;;;9.52;;
45326;SDS011;31062;49.678;24.560;2024-03-02T05:37:57;17.60;;;9.68;;
45326;SDS011;31062;49.678;24.560;2024-03-02T05:40:44;13.52;;;8.63;;
45326;SDS011;31062;49.678;24.560;2024-03-02T05:43:30;20.08;;;9.75;;
45326;SDS011;31062;49.678;24.560;2024-03-02T05:46:15;15.25;;;9.18;;
45326;SDS011;31062;49.678;24.560;2024-03-02T05:49:01;17.05;;;8.98;;
45326;SDS011;31062;49.678;24.560;2024-03-02T05:51:47;13.75;;;9.00;;
45326;SDS011;31062;49.678;24.560;2024-03-02T05:54:33;12.70;;;7.85;;
45326;SDS011;31062;49.678;24.560;2024-03-02T05:57:19;16.27;;;9.75;;
45326;SDS011;31062;49.678;24.560;2024-03-02T06:00:23;17.25;;;9.38;;
45326;SDS011;31062;49.678;24.560;2024-03-02T06:03:08;13.70;;;9.65;;
45326;SDS011;31062;49.678;24.560;2024-03-02T06:05:55;19.60;;;9.13;;
45326;SDS011;31062;49.678;24.560;2024-03-02T06:08:41;18.83;;;9.68;;
45326;SDS011;31062;49.678;24.560;2024-03-02T06:11:26;15.48;;;9.13;;
45326;SDS011;31062;49.678;24.560;2024-03-02T06:14:13;19.55;;;10.48;;
45326;SDS011;31062;49.678;24.560;2024-03-02T06:16:58;14.30;;;9.20;;
45326;SDS011;31062;49.678;24.560;2024-03-02T06:19:45;16.27;;;9.40;;
45326;SDS011;31062;49.678;24.560;2024-03-02T06:22:50;16.73;;;9.27;;
45326;SDS011;31062;49.678;24.560;2024-03-02T06:25:56;14.45;;;9.07;;
45326;SDS011;31062;49.678;24.560;2024-03-02T06:29:01;14.63;;;9.68;;
45326;SDS011;31062;49.678;24.560;2024-03-02T06:31:47;11.90;;;9.00;;
45326;SDS011;31062;49.678;24.560;2024-03-02T06:34:37;14.45;;;8.95;;
45326;SDS011;31062;49.678;24.560;2024-03-02T06:37:24;17.45;;;9.50;;
45326;SDS011;31062;49.678;24.560;2024-03-02T06:40:10;14.52;;;8.45;;
45326;SDS011;31062;49.678;24.560;2024-03-02T06:42:56;17.67;;;9.57;;
45326;SDS011;31062;49.678;24.560;2024-03-02T06:45:42;13.95;;;9.27;;
45326;SDS011;31062;49.678;24.560;2024-03-02T06:48:28;19.95;;;8.82;;
45326;SDS011;31062;49.678;24.560;2024-03-02T06:51:15;13.05;;;8.40;;
45326;SDS011;31062;49.678;24.560;2024-03-02T06:54:01;13.82;;;8.10;;
45326;SDS011;31062;49.678;24.560;2024-03-02T06:56:47;11.90;;;7.53;;
45326;SDS011;31062;49.678;24.560;2024-03-02T06:59:33;17.00;;;9.27;;
45326;SDS011;31062;49.678;24.560;2024-03-02T07:02:19;14.88;;;8.52;;
45326;SDS011;31062;49.678;24.560;2024-03-02T07:05:05;13.75;;;8.60;;
45326;SDS011;31062;49.678;24.560;2024-03-02T07:07:52;20.70;;;9.45;;
45326;SDS011;31062;49.678;24.560;2024-03-02T07:10:38;15.18;;;8.52;;
45326;SDS011;31062;49.678;24.560;2024-03-02T07:13:24;14.55;;;8.25;;
45326;SDS011;31062;49.678;24.560;2024-03-02T07:16:11;17.33;;;8.57;;
45326;SDS011;31062;49.678;24.560;2024-03-02T07:19:18;18.58;;;9.25;;
45326;SDS011;31062;49.678;24.560;2024-03-02T07:22:08;15.27;;;8.80;;
45326;SDS011;31062;49.678;24.560;2024-03-02T07:24:53;16.20;;;9.07;;
45326;SDS011;31062;49.678;24.560;2024-03-02T07:27:40;21.73;;;9.32;;
45326;SDS011;31062;49.678;24.560;2024-03-02T07:30:25;16.17;;;9.20;;
45326;SDS011;31062;49.678;24.560;2024-03-02T07:33:12;14.35;;;9.43;;
45326;SDS011;31062;49.678;24.560;2024-03-02T07:35:57;19.08;;;8.73;;
45326;SDS011;31062;49.678;24.560;2024-03-02T07:38:49;16.90;;;10.37;;
45326;SDS011;31062;49.678;24.560;2024-03-02T07:41:36;18.17;;;8.73;;
45326;SDS011;31062;49.678;24.560;2024-03-02T07:44:43;21.88;;;10.05;;
45326;SDS011;31062;49.678;24.560;2024-03-02T07:47:49;21.58;;;9.48;;
45326;SDS011;31062;49.678;24.560;2024-03-02T07:50:55;16.25;;;8.40;;
45326;SDS011;31062;49.678;24.560;2024-03-02T07:54:01;17.00;;;8.30;;
45326;SDS011;31062;49.678;24.560;2024-03-02T07:57:07;13.73;;;8.32;;
45326;SDS011;31062;49.678;24.560;2024-03-02T08:00:13;18.15;;;9.50;;
45326;SDS011;31062;49.678;24.560;2024-03-02T08:03:21;15.20;;;9.80;;
45326;SDS011;31062;49.678;24.560;2024-03-02T08:06:27;16.20;;;9.57;;
45326;SDS011;31062;49.678;24.560;2024-03-02T08:09:33;15.75;;;9.00;;
45326;SDS011;31062;49.678;24.560;2024-03-02T08:12:20;14.52;;;7.78;;
45326;SDS011;31062;49.678;24.560;2024-03-02T08:15:08;12.50;;;8.55;;
45326;SDS011;31062;49.678;24.560;2024-03-02T08:17:54;13.88;;;8.82;;
45326;SDS011;31062;49.678;24.560;2024-03-02T08:21:00;14.40;;;8.65;;
45326;SDS011;31062;49.678;24.560;2024-03-02T08:23:46;13.88;;;7.82;;
45326;SDS011;31062;49.678;24.560;2024-03-02T08:26:32;17.65;;;8.23;;
45326;SDS011;31062;49.678;24.560;2024-03-02T08:29:18;14.48;;;7.55;;
45326;SDS011;31062;49.678;24.560;2024-03-02T08:32:05;11.05;;;7.50;;
45326;SDS011;31062;49.678;24.560;2024-03-02T08:34:51;14.73;;;8.27;;
45326;SDS011;31062;49.678;24.560;2024-03-02T08:37:37;13.90;;;7.90;;
45326;SDS011;31062;49.678;24.560;2024-03-02T08:40:24;14.20;;;8.52;;
45326;SDS011;31062;49.678;24.560;2024-03-02T08:43:10;13.80;;;7.53;;
45326;SDS011;31062;49.678;24.560;2024-03-02T08:45:57;12.20;;;8.00;;
45326;SDS011;31062;49.678;24.560;2024-03-02T08:48:43;14.00;;;7.07;;
45326;SDS011;31062;49.678;24.560;2024-03-02T08:51:48;12.35;;;7.63;;
45326;SDS011;31062;49.678;24.560;2024-03-02T08:54:40;13.43;;;8.30;;
45326;SDS011;31062;49.678;24.560;2024-03-02T08:57:26;11.45;;;7.28;;
45326;SDS011;31062;49.678;24.560;2024-03-02T09:00:11;15.35;;;8.35;;
45326;SDS011;31062;49.678;24.560;2024-03-02T09:02:57;14.93;;;8.52;;
45326;SDS011;31062;49.678;24.560;2024-03-02T09:05:43;16.50;;;9.88;;
45326;SDS011;31062;49.678;24.560;2024-03-02T09:08:29;15.32;;;8.15;;
45326;SDS011;31062;49.678;24.560;2024-03-02T09:11:15;10.95;;;7.10;;
45326;SDS011;31062;49.678;24.560;2024-03-02T09:14:01;9.13;;;6.80;;
45326;SDS011;31062;49.678;24.560;2024-03-02T09:16:47;11.75;;;6.88;;
45326;SDS011;31062;49.678;24.560;2024-03-02T09:19:52;8.73;;;6.25;;
45326;SDS011;31062;49.678;24.560;2024-03-02T09:22:38;10.50;;;6.93;;
45326;SDS011;31062;49.678;24.560;2024-03-02T09:25:24;12.30;;;7.28;;
45326;SDS011;31062;49.678;24.560;2024-03-02T09:28:10;12.75;;;6.75;;
45326;SDS011;31062;49.678;24.560;2024-03-02T09:30:57;14.25;;;8.02;;
45326;SDS011;31062;49.678;24.560;2024-03-02T09:33:45;10.10;;;6.90;;
45326;SDS011;31062;49.678;24.560;2024-03-02T09:36:31;11.90;;;7.10;;
45326;SDS011;31062;49.678;24.560;2024-03-02T09:39:37;13.02;;;7.30;;
45326;SDS011;31062;49.678;24.560;2024-03-02T09:42:22;15.57;;;7.78;;
45326;SDS011;31062;49.678;24.560;2024-03-02T09:45:09;9.40;;;6.60;;
45326;SDS011;31062;49.678;24.560;2024-03-02T09:48:17;12.20;;;7.28;;
45326;SDS011;31062;49.678;24.560;2024-03-02T09:51:04;9.38;;;7.05;;
45326;SDS011;31062;49.678;24.560;2024-03-02T09:54:10;14.70;;;6.53;;
45326;SDS011;31062;49.678;24.560;2024-03-02T09:57:06;11.82;;;7.80;;
45326;SDS011;31062;49.678;24.560;2024-03-02T09:59:52;12.77;;;8.52;;
45326;SDS011;31062;49.678;24.560;2024-03-02T10:02:57;17.63;;;8.88;;
45326;SDS011;31062;49.678;24.560;2024-03-02T10:06:22;19.05;;;7.65;;
45326;SDS011;31062;49.678;24.560;2024-03-02T10:09:28;13.43;;;7.32;;
45326;SDS011;31062;49.678;24.560;2024-03-02T10:12:16;15.27;;;7.20;;
45326;SDS011;31062;49.678;24.560;2024-03-02T10:15:23;9.50;;;5.43;;
45326;SDS011;31062;49.678;24.560;2024-03-02T10:18:29;10.90;;;6.70;;
45326;SDS011;31062;49.678;24.560;2024-03-02T10:21:16;11.02;;;6.30;;
45326;SDS011;31062;49.678;24.560;2024-03-02T10:24:22;16.15;;;6.93;;
45326;SDS011;31062;49.678;24.560;2024-03-02T10:27:28;11.38;;;6.55;;
45326;SDS011;31062;49.678;24.560;2024-03-02T10:30:15;8.88;;;6.60;;
45326;SDS011;31062;49.678;24.560;2024-03-02T10:33:05;19.05;;;7.53;;
45326;SDS011;31062;49.678;24.560;2024-03-02T10:35:51;10.80;;;6.75;;
45326;SDS011;31062;49.678;24.560;2024-03-02T10:38:37;12.27;;;6.43;;
45326;SDS011;31062;49.678;24.560;2024-03-02T10:41:46;9.55;;;5.82;;
45326;SDS011;31062;49.678;24.560;2024-03-02T10:44:55;16.20;;;7.50;;
45326;SDS011;31062;49.678;24.560;2024-03-02T10:48:02;9.63;;;6.20;;
45326;SDS011;31062;49.678;24.560;2024-03-02T10:50:48;11.85;;;6.55;;
45326;SDS011;31062;49.678;24.560;2024-03-02T10:53:34;16.23;;;6.32;;
45326;SDS011;31062;49.678;24.560;2024-03-02T10:56:30;10.88;;;6.72;;
45326;SDS011;31062;49.678;24.560;2024-03-02T11:02:09;8.93;;;6.10;;
45326;SDS011;31062;49.678;24.560;2024-03-02T11:04:57;13.70;;;5.47;;
45326;SDS011;31062;49.678;24.560;2024-03-02T11:07:46;13.60;;;6.35;;
45326;SDS011;31062;49.678;24.560;2024-03-02T11:10:41;11.95;;;6.35;;
45326;SDS011;31062;49.678;24.560;2024-03-02T11:13:37;12.35;;;6.28;;
45326;SDS011;31062;49.678;24.560;2024-03-02T11:16:33;9.60;;;5.65;;
45326;SDS011;31062;49.678;24.560;2024-03-02T11:19:22;12.68;;;5.45;;
45326;SDS011;31062;49.678;24.560;2024-03-02T11:22:10;12.43;;;7.10;;
45326;SDS011;31062;49.678;24.560;2024-03-02T11:24:57;11.57;;;6.22;;
45326;SDS011;31062;49.678;24.560;2024-03-02T11:33:49;48.95;;;21.10;;
45326;SDS011;31062;49.678;24.560;2024-03-02T11:36:35;25.75;;;10.52;;
45326;SDS011;31062;49.678;24.560;2024-03-02T11:39:21;26.92;;;10.00;;
45326;SDS011;31062;49.678;24.560;2024-03-02T11:42:07;24.90;;;12.07;;
45326;SDS011;31062;49.678;24.560;2024-03-02T11:44:56;20.20;;;10.02;;
45326;SDS011;31062;49.678;24.560;2024-03-02T11:49:15;13.35;;;7.75;;
45326;SDS011;31062;49.678;24.560;2024-03-02T11:52:41;12.82;;;6.80;;
45326;SDS011;31062;49.678;24.560;2024-03-02T11:56:06;10.13;;;6.90;;
45326;SDS011;31062;49.678;24.560;2024-03-02T11:59:32;12.82;;;7.18;;
45326;SDS011;31062;49.678;24.560;2024-03-02T12:03:18;16.33;;;7.80;;
45326;SDS011;31062;49.678;24.560;2024-03-02T12:06:43;10.57;;;6.78;;
45326;SDS011;31062;49.678;24.560;2024-03-02T12:10:10;11.00;;;4.95;;
45326;SDS011;31062;49.678;24.560;2024-03-02T12:13:35;13.07;;;6.25;;
45326;SDS011;31062;49.678;24.560;2024-03-02T12:17:01;9.30;;;6.03;;
45326;SDS011;31062;49.678;24.560;2024-03-02T12:20:48;16.40;;;10.55;;
45326;SDS011;31062;49.678;24.560;2024-03-02T12:23:38;16.90;;;6.75;;
45326;SDS011;31062;49.678;24.560;2024-03-02T12:26:24;11.13;;;6.30;;
45326;SDS011;31062;49.678;24.560;2024-03-02T12:29:10;13.85;;;5.72;;
45326;SDS011;31062;49.678;24.560;2024-03-02T12:31:57;9.30;;;5.40;;
45326;SDS011;31062;49.678;24.560;2024-03-02T12:35:05;11.98;;;6.40;;
45326;SDS011;31062;49.678;24.560;2024-03-02T12:37:51;12.65;;;6.30;;
45326;SDS011;31062;49.678;24.560;2024-03-02T12:40:38;11.55;;;6.15;;
45326;SDS011;31062;49.678;24.560;2024-03-02T12:43:24;11.43;;;7.97;;
45326;SDS011;31062;49.678;24.560;2024-03-02T12:46:10;15.07;;;8.73;;
45326;SDS011;31062;49.678;24.560;2024-03-02T12:48:56;36.25;;;19.13;;
45326;SDS011;31062;49.678;24.560;2024-03-02T12:51:42;35.55;;;17.92;;
45326;SDS011;31062;49.678;24.560;2024-03-02T12:54:49;15.43;;;9.23;;
45326;SDS011;31062;49.678;24.560;2024-03-02T12:57:35;9.30;;;5.70;;
45326;SDS011;31062;49.678;24.560;2024-03-02T13:00:21;11.00;;;5.28;;
45326;SDS011;31062;49.678;24.560;2024-03-02T13:03:08;10.90;;;6.72;;
45326;SDS011;31062;49.678;24.560;2024-03-02T13:05:55;12.90;;;7.68;;
45326;SDS011;31062;49.678;24.560;2024-03-02T13:08:41;8.50;;;5.55;;
45326;SDS011;31062;49.678;24.560;2024-03-02T13:11:27;10.70;;;7.28;;
45326;SDS011;31062;49.678;24.560;2024-03-02T13:14:16;12.52;;;6.38;;
45326;SDS011;31062;49.678;24.560;2024-03-02T13:17:21;10.48;;;6.05;;
45326;SDS011;31062;49.678;24.560;2024-03-02T13:20:08;11.00;;;5.32;;
45326;SDS011;31062;49.678;24.560;2024-03-02T13:22:56;7.72;;;5.75;;
45326;SDS011;31062;49.678;24.560;2024-03-02T13:26:01;9.98;;;5.63;;
45326;SDS011;31062;49.678;24.560;2024-03-02T13:28:48;10.35;;;6.75;;
45326;SDS011;31062;49.678;24.560;2024-03-02T13:31:33;12.50;;;6.25;;
45326;SDS011;31062;49.678;24.560;2024-03-02T13:34:19;7.95;;;4.93;;
45326;SDS011;31062;49.678;24.560;2024-03-02T13:37:05;20.67;;;8.30;;
45326;SDS011;31062;49.678;24.560;2024-03-02T13:39:51;22.50;;;11.57;;
45326;SDS011;31062;49.678;24.560;2024-03-02T13:42:56;10.73;;;6.22;;
45326;SDS011;31062;49.678;24.560;2024-03-02T13:45:42;15.77;;;6.07;;
45326;SDS011;31062;49.678;24.560;2024-03-02T13:48:48;11.60;;;7.10;;
45326;SDS011;31062;49.678;24.560;2024-03-02T13:51:34;11.45;;;6.50;;
45326;SDS011;31062;49.678;24.560;2024-03-02T13:54:20;12.63;;;7.35;;
45326;SDS011;31062;49.678;24.560;2024-03-02T13:57:07;11.55;;;7.80;;
45326;SDS011;31062;49.678;24.560;2024-03-02T13:59:53;13.82;;;6.50;;
45326;SDS011;31062;49.678;24.560;2024-03-02T14:02:40;12.18;;;6.57;;
45326;SDS011;31062;49.678;24.560;2024-03-02T14:05:25;9.20;;;5.43;;
45326;SDS011;31062;49.678;24.560;2024-03-02T14:08:11;8.68;;;5.88;;
45326;SDS011;31062;49.678;24.560;2024-03-02T14:10:56;13.35;;;5.57;;
45326;SDS011;31062;49.678;24.560;2024-03-02T14:13:46;11.50;;;5.43;;
45326;SDS011;31062;49.678;24.560;2024-03-02T14:16:40;12.40;;;7.30;;
45326;SDS011;31062;49.678;24.560;2024-03-02T14:19:26;12.38;;;6.82;;
45326;SDS011;31062;49.678;24.560;2024-03-02T14:22:12;12.10;;;5.55;;
45326;SDS011;31062;49.678;24.560;2024-03-02T14:25:02;13.02;;;6.07;;
45326;SDS011;31062;49.678;24.560;2024-03-02T14:27:47;8.60;;;6.00;;
45326;SDS011;31062;49.678;24.560;2024-03-02T14:30:53;16.23;;;6.70;;
45326;SDS011;31062;49.678;24.560;2024-03-02T14:33:40;9.18;;;5.80;;
45326;SDS011;31062;49.678;24.560;2024-03-02T14:36:26;10.00;;;5.97;;
45326;SDS011;31062;49.678;24.560;2024-03-02T14:39:13;9.68;;;5.75;;
45326;SDS011;31062;49.678;24.560;2024-03-02T14:42:00;11.05;;;6.45;;
45326;SDS011;31062;49.678;24.560;2024-03-02T14:44:47;9.70;;;6.28;;
45326;SDS011;31062;49.678;24.560;2024-03-02T14:47:33;9.65;;;5.95;;
45326;SDS011;31062;49.678;24.560;2024-03-02T14:50:20;13.52;;;7.25;;
45326;SDS011;31062;49.678;24.560;2024-03-02T14:53:06;9.25;;;5.53;;
45326;SDS011;31062;49.678;24.560;2024-03-02T14:55:52;13.40;;;6.72;;
45326;SDS011;31062;49.678;24.560;2024-03-02T14:58:38;10.77;;;6.32;;
45326;SDS011;31062;49.678;24.560;2024-03-02T15:01:27;13.38;;;6.38;;
45326;SDS011;31062;49.678;24.560;2024-03-02T15:04:13;12.10;;;6.93;;
45326;SDS011;31062;49.678;24.560;2024-03-02T15:07:00;13.23;;;6.25;;
45326;SDS011;31062;49.678;24.560;2024-03-02T15:09:46;10.40;;;6.43;;
45326;SDS011;31062;49.678;24.560;2024-03-02T15:12:32;11.13;;;6.85;;
45326;SDS011;31062;49.678;24.560;2024-03-02T15:15:18;17.80;;;7.60;;
45326;SDS011;31062;49.678;24.560;2024-03-02T15:18:04;14.23;;;7.93;;
45326;SDS011;31062;49.678;24.560;2024-03-02T15:20:52;11.65;;;7.28;;
45326;SDS011;31062;49.678;24.560;2024-03-02T15:23:37;13.50;;;8.32;;
45326;SDS011;31062;49.678;24.560;2024-03-02T15:26:23;12.10;;;6.35;;
45326;SDS011;31062;49.678;24.560;2024-03-02T15:29:09;16.13;;;8.30;;
45326;SDS011;31062;49.678;24.560;2024-03-02T15:31:55;11.18;;;7.50;;
45326;SDS011;31062;49.678;24.560;2024-03-02T15:34:41;11.02;;;6.65;;
45326;SDS011;31062;49.678;24.560;2024-03-02T15:37:28;17.42;;;8.40;;
45326;SDS011;31062;49.678;24.560;2024-03-02T15:40:14;14.63;;;7.22;;
45326;SDS011;31062;49.678;24.560;2024-03-02T15:43:00;24.02;;;10.43;;
45326;SDS011;31062;49.678;24.560;2024-03-02T15:45:46;32.83;;;12.60;;
45326;SDS011;31062;49.678;24.560;2024-03-02T15:48:31;23.55;;;11.23;;
45326;SDS011;31062;49.678;24.560;2024-03-02T15:51:18;27.77;;;12.25;;
45326;SDS011;31062;49.678;24.560;2024-03-02T15:54:20;34.85;;;14.95;;
45326;SDS011;31062;49.678;24.560;2024-03-02T15:57:25;37.53;;;16.08;;
45326;SDS011;31062;49.678;24.560;2024-03-02T16:00:11;36.55;;;16.38;;
45326;SDS011;31062;49.678;24.560;2024-03-02T16:03:18;84.63;;;32.15;;
45326;SDS011;31062;49.678;24.560;2024-03-02T16:06:04;96.82;;;37.67;;
45326;SDS011;31062;49.678;24.560;2024-03-02T16:09:10;54.72;;;22.75;;
45326;SDS011;31062;49.678;24.560;2024-03-02T16:11:57;46.92;;;20.33;;
45326;SDS011;31062;49.678;24.560;2024-03-02T16:15:03;83.75;;;38.55;;
45326;SDS011;31062;49.678;24.560;2024-03-02T16:17:58;39.22;;;17.58;;
45326;SDS011;31062;49.678;24.560;2024-03-02T16:21:04;33.83;;;17.52;;
45326;SDS011;31062;49.678;24.560;2024-03-02T16:23:50;34.60;;;18.45;;
45326;SDS011;31062;49.678;24.560;2024-03-02T16:26:37;24.65;;;12.98;;
45326;SDS011;31062;49.678;24.560;2024-03-02T16:29:44;24.25;;;13.55;;
45326;SDS011;31062;49.678;24.560;2024-03-02T16:32:38;18.10;;;9.27;;
45326;SDS011;31062;49.678;24.560;2024-03-02T16:35:44;24.92;;;11.52;;
45326;SDS011;31062;49.678;24.560;2024-03-02T16:38:34;34.75;;;17.65;;
45326;SDS011;31062;49.678;24.560;2024-03-02T16:41:40;34.25;;;13.43;;
45326;SDS011;31062;49.678;24.560;2024-03-02T16:44:32;22.23;;;9.65;;
45326;SDS011;31062;49.678;24.560;2024-03-02T16:47:18;26.05;;;11.68;;